createdAt,value
2018-12-17T00:00:53.003Z,5.45
2018-12-17T00:01:53.140Z,5.45
2018-12-17T00:02:53.034Z,5.44
2018-12-17T00:03:53.089Z,5.43
2018-12-17T00:04:53.266Z,5.42
2018-12-17T00:05:53.074Z,5.44
2018-12-17T00:06:52.957Z,5.45
2018-12-17T00:07:53.097Z,5.44
2018-12-17T00:08:53.126Z,5.44
2018-12-17T00:09:52.963Z,5.44
2018-12-17T00:10:53.310Z,5.43
2018-12-17T00:11:53.201Z,5.44
2018-12-17T00:12:53.089Z,5.44
2018-12-17T00:13:53.093Z,5.43
2018-12-17T00:14:53.136Z,5.44
2018-12-17T00:15:53.125Z,5.45
2018-12-17T00:16:53.325Z,5.46
2018-12-17T00:17:52.937Z,5.46
2018-12-17T00:18:53.043Z,5.45
2018-12-17T00:19:53.204Z,5.44
2018-12-17T00:20:53.029Z,5.47
2018-12-17T00:21:53.300Z,5.47
2018-12-17T00:22:52.992Z,5.48
2018-12-17T00:23:53.061Z,5.47
2018-12-17T00:24:52.949Z,5.48
2018-12-17T00:25:52.955Z,5.48
2018-12-17T00:26:53.033Z,5.47
2018-12-17T00:27:53.076Z,5.49
2018-12-17T00:28:53.164Z,5.48
2018-12-17T00:29:52.931Z,5.46
2018-12-17T00:30:53.103Z,5.46
2018-12-17T00:31:53.097Z,5.45
2018-12-17T00:32:53.263Z,5.47
2018-12-17T00:33:53.096Z,5.47
2018-12-17T00:34:53.004Z,5.47
2018-12-17T00:35:53.148Z,5.47
2018-12-17T00:36:53.088Z,5.47
2018-12-17T00:37:53.234Z,5.47
2018-12-17T00:38:53.092Z,5.46
2018-12-17T00:39:53.305Z,5.46
2018-12-17T00:40:52.986Z,5.45
2018-12-17T00:41:53.130Z,5.46
2018-12-17T00:42:53.077Z,5.45
2018-12-17T00:43:53.814Z,5.44
2018-12-17T00:44:52.899Z,5.45
2018-12-17T00:45:53.207Z,5.45
2018-12-17T00:46:52.910Z,5.43
2018-12-17T00:47:53.069Z,5.43
2018-12-17T00:48:53.181Z,5.44
2018-12-17T00:49:53.067Z,5.45
2018-12-17T00:50:52.908Z,5.45
2018-12-17T00:51:53.253Z,5.44
2018-12-17T00:52:53.167Z,5.43
2018-12-17T00:53:52.923Z,5.42
2018-12-17T00:54:53.172Z,5.45
2018-12-17T00:55:52.897Z,5.44
2018-12-17T00:56:53.095Z,5.44
2018-12-17T00:57:52.885Z,5.44
2018-12-17T00:58:53.206Z,5.44
2018-12-17T00:59:52.897Z,5.44
2018-12-17T01:00:52.954Z,5.43
2018-12-17T01:01:53.322Z,5.42
2018-12-17T01:02:53.124Z,5.43
2018-12-17T01:03:52.941Z,5.42
2018-12-17T01:04:52.898Z,5.42
2018-12-17T01:05:52.890Z,5.41
2018-12-17T01:06:53.357Z,5.42
2018-12-17T01:07:52.924Z,5.42
2018-12-17T01:08:53.167Z,5.41
2018-12-17T01:09:52.951Z,5.41
2018-12-17T01:10:53.399Z,5.41
2018-12-17T01:11:53.121Z,5.41
2018-12-17T01:12:52.888Z,5.42
2018-12-17T01:13:52.849Z,5.44
2018-12-17T01:14:53.002Z,5.45
2018-12-17T01:15:53.074Z,5.44
2018-12-17T01:16:53.067Z,5.42
2018-12-17T01:17:52.853Z,5.44
2018-12-17T01:18:52.982Z,5.43
2018-12-17T01:19:53.089Z,5.42
2018-12-17T01:20:52.906Z,5.42
2018-12-17T01:21:52.865Z,5.43
2018-12-17T01:22:53.093Z,5.41
2018-12-17T01:23:52.857Z,5.41
2018-12-17T01:24:52.884Z,5.41
2018-12-17T01:25:53.282Z,5.41
2018-12-17T01:26:52.940Z,5.4
2018-12-17T01:27:52.837Z,5.38
2018-12-17T01:28:53.018Z,5.4
2018-12-17T01:29:53.143Z,5.41
2018-12-17T01:30:52.966Z,5.4
2018-12-17T01:31:52.869Z,5.4
2018-12-17T01:32:53.131Z,5.4
2018-12-17T01:33:52.867Z,5.4
2018-12-17T01:34:52.854Z,5.4
2018-12-17T01:35:52.866Z,5.41
2018-12-17T01:36:53.253Z,5.39
2018-12-17T01:37:52.903Z,5.4
2018-12-17T01:38:52.870Z,5.4
2018-12-17T01:39:52.865Z,5.41
2018-12-17T01:40:52.883Z,5.4
2018-12-17T01:41:52.859Z,5.41
2018-12-17T01:42:52.868Z,5.41
2018-12-17T01:43:52.926Z,5.41
2018-12-17T01:44:52.848Z,5.42
2018-12-17T01:45:52.852Z,5.44
2018-12-17T01:46:52.886Z,5.42
2018-12-17T01:47:52.846Z,5.43
2018-12-17T01:48:52.868Z,5.43
2018-12-17T01:49:52.842Z,5.42
2018-12-17T01:50:53.294Z,5.41
2018-12-17T01:51:53.083Z,5.44
2018-12-17T01:52:52.886Z,5.44
2018-12-17T01:53:53.637Z,5.43
2018-12-17T01:54:53.030Z,5.43
2018-12-17T01:55:53.053Z,5.44
2018-12-17T01:56:53.130Z,5.43
2018-12-17T01:57:52.694Z,5.42
2018-12-17T01:58:52.888Z,5.44
2018-12-17T01:59:52.859Z,5.43
2018-12-17T02:00:54.112Z,5.44
2018-12-17T02:01:53.064Z,5.44
2018-12-17T02:02:52.847Z,5.44
2018-12-17T02:03:53.047Z,5.45
2018-12-17T02:04:52.947Z,5.46
2018-12-17T02:05:53.264Z,5.45
2018-12-17T02:06:53.117Z,5.46
2018-12-17T02:07:52.826Z,5.47
2018-12-17T02:08:52.858Z,5.46
2018-12-17T02:09:52.882Z,5.44
2018-12-17T02:10:52.918Z,5.45
2018-12-17T02:11:52.827Z,5.44
2018-12-17T02:12:52.835Z,5.44
2018-12-17T02:13:52.841Z,5.45
2018-12-17T02:14:52.829Z,5.44
2018-12-17T02:15:52.986Z,5.44
2018-12-17T02:16:52.871Z,5.45
2018-12-17T02:17:53.341Z,5.46
2018-12-17T02:18:52.980Z,5.45
2018-12-17T02:19:52.861Z,5.46
2018-12-17T02:20:53.024Z,5.45
2018-12-17T02:21:52.761Z,5.45
2018-12-17T02:22:53.600Z,5.44
2018-12-17T02:23:52.793Z,5.44
2018-12-17T02:24:52.879Z,5.43
2018-12-17T02:25:52.989Z,5.44
2018-12-17T02:26:52.955Z,5.44
2018-12-17T02:27:53.205Z,5.43
2018-12-17T02:28:53.011Z,5.43
2018-12-17T02:29:53.154Z,5.42
2018-12-17T02:30:52.905Z,5.42
2018-12-17T02:31:52.872Z,5.42
2018-12-17T02:32:52.828Z,5.43
2018-12-17T02:33:53.147Z,5.43
2018-12-17T02:34:53.244Z,5.43
2018-12-17T02:35:52.884Z,5.43
2018-12-17T02:36:52.921Z,5.43
2018-12-17T02:37:53.188Z,5.43
2018-12-17T02:38:52.861Z,5.43
2018-12-17T02:39:52.713Z,5.42
2018-12-17T02:40:53.227Z,5.43
2018-12-17T02:41:53.020Z,5.43
2018-12-17T02:42:53.006Z,5.43
2018-12-17T02:43:53.143Z,5.43
2018-12-17T02:44:52.727Z,5.45
2018-12-17T02:45:52.960Z,5.44
2018-12-17T02:46:52.786Z,5.44
2018-12-17T02:47:52.966Z,5.45
2018-12-17T02:48:52.943Z,5.45
2018-12-17T02:49:53.101Z,5.45
2018-12-17T02:50:52.865Z,5.43
2018-12-17T02:51:52.758Z,5.44
2018-12-17T02:52:52.748Z,5.47
2018-12-17T02:53:52.906Z,5.47
2018-12-17T02:54:53.068Z,5.47
2018-12-17T02:55:52.836Z,5.46
2018-12-17T02:56:52.727Z,5.48
2018-12-17T02:57:52.770Z,5.47
2018-12-17T02:58:53.046Z,5.48
2018-12-17T02:59:52.713Z,5.48
2018-12-17T03:00:52.963Z,5.49
2018-12-17T03:01:52.730Z,5.51
2018-12-17T03:02:53.064Z,5.52
2018-12-17T03:03:53.130Z,5.52
2018-12-17T03:04:52.850Z,5.5
2018-12-17T03:05:52.786Z,5.49
2018-12-17T03:06:52.892Z,5.51
2018-12-17T03:07:52.902Z,5.48
2018-12-17T03:08:52.911Z,5.48
2018-12-17T03:09:52.704Z,5.49
2018-12-17T03:10:52.817Z,5.48
2018-12-17T03:11:52.981Z,5.52
2018-12-17T03:12:52.683Z,5.52
2018-12-17T03:13:52.687Z,5.49
2018-12-17T03:14:53.078Z,5.5
2018-12-17T03:15:52.679Z,5.49
2018-12-17T03:16:52.784Z,5.5
2018-12-17T03:17:52.960Z,5.51
2018-12-17T03:18:53.104Z,5.51
2018-12-17T03:19:52.666Z,5.51
2018-12-17T03:20:52.970Z,5.5
2018-12-17T03:21:52.669Z,5.5
2018-12-17T03:22:52.747Z,5.51
2018-12-17T03:23:52.905Z,5.51
2018-12-17T03:24:52.788Z,5.51
2018-12-17T03:25:52.702Z,5.51
2018-12-17T03:26:52.733Z,5.51
2018-12-17T03:27:52.712Z,5.5
2018-12-17T03:28:52.729Z,5.51
2018-12-17T03:29:52.680Z,5.5
2018-12-17T03:30:53.231Z,5.51
2018-12-17T03:31:52.690Z,5.51
2018-12-17T03:32:52.888Z,5.49
2018-12-17T03:33:52.691Z,5.49
2018-12-17T03:34:52.915Z,5.5
2018-12-17T03:35:52.755Z,5.5
2018-12-17T03:36:52.644Z,5.5
2018-12-17T03:37:53.066Z,5.5
2018-12-17T03:38:52.882Z,5.5
2018-12-17T03:39:52.729Z,5.5
2018-12-17T03:40:53.356Z,5.5
2018-12-17T03:41:52.898Z,5.5
2018-12-17T03:42:52.767Z,5.5
2018-12-17T03:43:52.795Z,5.49
2018-12-17T03:44:52.747Z,5.48
2018-12-17T03:45:53.231Z,5.48
2018-12-17T03:46:53.051Z,5.49
2018-12-17T03:47:52.663Z,5.48
2018-12-17T03:48:52.830Z,5.48
2018-12-17T03:49:52.763Z,5.49
2018-12-17T03:50:52.753Z,5.49
2018-12-17T03:51:53.051Z,5.49
2018-12-17T03:52:52.751Z,5.49
2018-12-17T03:53:52.703Z,5.49
2018-12-17T03:54:53.293Z,5.5
2018-12-17T03:55:52.718Z,5.48
2018-12-17T03:56:53.003Z,5.48
2018-12-17T03:57:52.692Z,5.49
2018-12-17T03:58:59.715Z,5.49
2018-12-17T03:59:52.633Z,5.49
2018-12-17T04:00:52.669Z,5.49
2018-12-17T04:01:52.780Z,5.49
2018-12-17T04:02:52.822Z,5.49
2018-12-17T04:03:52.668Z,5.49
2018-12-17T04:04:52.679Z,5.48
2018-12-17T04:05:52.638Z,5.48
2018-12-17T04:06:52.778Z,5.49
2018-12-17T04:07:53.489Z,5.49
2018-12-17T04:08:52.695Z,5.49
2018-12-17T04:09:53.053Z,5.49
2018-12-17T04:10:52.719Z,5.5
2018-12-17T04:11:52.696Z,5.49
2018-12-17T04:12:52.703Z,5.49
2018-12-17T04:13:52.791Z,5.5
2018-12-17T04:14:52.634Z,5.5
2018-12-17T04:15:52.939Z,5.49
2018-12-17T04:16:52.609Z,5.5
2018-12-17T04:17:52.667Z,5.5
2018-12-17T04:18:53.092Z,5.5
2018-12-17T04:19:52.743Z,5.5
2018-12-17T04:20:53.159Z,5.5
2018-12-17T04:21:53.261Z,5.5
2018-12-17T04:22:52.633Z,5.5
2018-12-17T04:23:52.929Z,5.5
2018-12-17T04:24:52.731Z,5.52
2018-12-17T04:25:53.100Z,5.51
2018-12-17T04:26:52.821Z,5.52
2018-12-17T04:27:52.664Z,5.51
2018-12-17T04:28:52.776Z,5.52
2018-12-17T04:29:52.645Z,5.52
2018-12-17T04:30:52.684Z,5.5
2018-12-17T04:31:52.846Z,5.5
2018-12-17T04:32:52.592Z,5.52
2018-12-17T04:33:52.802Z,5.51
2018-12-17T04:34:52.780Z,5.52
2018-12-17T04:35:53.460Z,5.51
2018-12-17T04:36:52.714Z,5.5
2018-12-17T04:37:52.726Z,5.5
2018-12-17T04:38:52.867Z,5.51
2018-12-17T04:39:52.817Z,5.5
2018-12-17T04:40:52.720Z,5.49
2018-12-17T04:41:52.661Z,5.5
2018-12-17T04:42:52.614Z,5.51
2018-12-17T04:43:52.695Z,5.51
2018-12-17T04:44:52.601Z,5.5
2018-12-17T04:45:52.790Z,5.51
2018-12-17T04:46:52.659Z,5.51
2018-12-17T04:47:52.656Z,5.5
2018-12-17T04:48:52.733Z,5.51
2018-12-17T04:49:52.578Z,5.53
2018-12-17T04:50:52.602Z,5.52
2018-12-17T04:51:52.584Z,5.52
2018-12-17T04:52:52.591Z,5.51
2018-12-17T04:53:52.624Z,5.5
2018-12-17T04:54:52.582Z,5.52
2018-12-17T04:55:52.663Z,5.51
2018-12-17T04:56:52.666Z,5.51
2018-12-17T04:57:52.863Z,5.5
2018-12-17T04:58:52.886Z,5.54
2018-12-17T04:59:52.551Z,5.53
2018-12-17T05:00:52.628Z,5.53
2018-12-17T05:01:52.631Z,5.52
2018-12-17T05:02:52.663Z,5.53
2018-12-17T05:03:52.542Z,5.52
2018-12-17T05:04:52.549Z,5.52
2018-12-17T05:05:52.549Z,5.53
2018-12-17T05:06:52.585Z,5.52
2018-12-17T05:07:52.523Z,5.52
2018-12-17T05:08:52.562Z,5.52
2018-12-17T05:09:52.679Z,5.53
2018-12-17T05:10:52.557Z,5.52
2018-12-17T05:11:52.704Z,5.54
2018-12-17T05:12:52.671Z,5.54
2018-12-17T05:13:52.559Z,5.52
2018-12-17T05:14:52.591Z,5.53
2018-12-17T05:15:52.740Z,5.55
2018-12-17T05:16:52.798Z,5.54
2018-12-17T05:17:52.524Z,5.54
2018-12-17T05:18:52.606Z,5.55
2018-12-17T05:19:52.714Z,5.54
2018-12-17T05:20:52.605Z,5.54
2018-12-17T05:21:52.655Z,5.56
2018-12-17T05:22:52.747Z,5.56
2018-12-17T05:23:52.889Z,5.54
2018-12-17T05:24:52.855Z,5.54
2018-12-17T05:25:52.616Z,5.53
2018-12-17T05:26:53.033Z,5.53
2018-12-17T05:27:52.832Z,5.53
2018-12-17T05:28:52.584Z,5.53
2018-12-17T05:29:52.574Z,5.52
2018-12-17T05:30:52.624Z,5.54
2018-12-17T05:31:52.734Z,5.55
2018-12-17T05:32:52.640Z,5.58
2018-12-17T05:33:53.416Z,5.56
2018-12-17T05:34:52.566Z,5.55
2018-12-17T05:35:52.653Z,5.56
2018-12-17T05:36:52.887Z,5.55
2018-12-17T05:37:52.686Z,5.56
2018-12-17T05:38:53.349Z,5.56
2018-12-17T05:39:52.550Z,5.57
2018-12-17T05:40:52.819Z,5.55
2018-12-17T05:41:52.633Z,5.58
2018-12-17T05:42:52.548Z,5.58
2018-12-17T05:43:52.949Z,5.58
2018-12-17T05:44:52.505Z,5.58
2018-12-17T05:45:52.534Z,5.59
2018-12-17T05:46:52.528Z,5.58
2018-12-17T05:47:52.552Z,5.58
2018-12-17T05:48:52.491Z,5.57
2018-12-17T05:49:52.739Z,5.58
2018-12-17T05:50:52.635Z,5.59
2018-12-17T05:51:52.911Z,5.58
2018-12-17T05:52:52.751Z,5.57
2018-12-17T05:53:52.475Z,5.56
2018-12-17T05:54:52.709Z,5.58
2018-12-17T05:55:52.505Z,5.58
2018-12-17T05:56:52.561Z,5.59
2018-12-17T05:57:52.597Z,5.59
2018-12-17T05:58:52.549Z,5.6
2018-12-17T05:59:52.611Z,5.61
2018-12-17T06:00:52.602Z,5.62
2018-12-17T06:01:52.627Z,5.61
2018-12-17T06:02:52.562Z,5.59
2018-12-17T06:03:52.495Z,5.58
2018-12-17T06:04:52.506Z,5.58
2018-12-17T06:05:52.566Z,5.59
2018-12-17T06:06:52.692Z,5.59
2018-12-17T06:07:52.786Z,5.58
2018-12-17T06:08:52.595Z,5.58
2018-12-17T06:09:52.466Z,5.58
2018-12-17T06:10:52.515Z,5.57
2018-12-17T06:11:52.514Z,5.58
2018-12-17T06:12:52.908Z,5.56
2018-12-17T06:13:52.515Z,5.56
2018-12-17T06:14:52.729Z,5.57
2018-12-17T06:15:52.463Z,5.56
2018-12-17T06:16:52.506Z,5.55
2018-12-17T06:17:52.601Z,5.56
2018-12-17T06:18:52.717Z,5.57
2018-12-17T06:19:52.490Z,5.55
2018-12-17T06:20:52.636Z,5.56
2018-12-17T06:21:52.630Z,5.55
2018-12-17T06:22:52.659Z,5.56
2018-12-17T06:23:52.887Z,5.55
2018-12-17T06:24:52.791Z,5.55
2018-12-17T06:25:52.721Z,5.55
2018-12-17T06:26:52.586Z,5.55
2018-12-17T06:27:52.496Z,5.55
2018-12-17T06:28:52.544Z,5.54
2018-12-17T06:29:52.586Z,5.56
2018-12-17T06:30:52.474Z,5.55
2018-12-17T06:31:52.581Z,5.56
2018-12-17T06:32:52.484Z,5.55
2018-12-17T06:33:52.435Z,5.56
2018-12-17T06:34:52.446Z,5.58
2018-12-17T06:35:52.533Z,5.56
2018-12-17T06:36:52.630Z,5.57
2018-12-17T06:37:52.462Z,5.58
2018-12-17T06:38:52.446Z,5.57
2018-12-17T06:39:52.690Z,5.55
2018-12-17T06:40:52.429Z,5.57
2018-12-17T06:41:52.432Z,5.56
2018-12-17T06:42:52.552Z,5.56
2018-12-17T06:43:52.518Z,5.58
2018-12-17T06:44:52.416Z,5.56
2018-12-17T06:45:52.424Z,5.56
2018-12-17T06:46:52.439Z,5.57
2018-12-17T06:47:52.429Z,5.58
2018-12-17T06:48:52.490Z,5.6
2018-12-17T06:49:52.655Z,5.59
2018-12-17T06:50:52.683Z,5.59
2018-12-17T06:51:52.455Z,5.59
2018-12-17T06:52:52.575Z,5.59
2018-12-17T06:53:52.623Z,5.59
2018-12-17T06:54:55.378Z,5.59
2018-12-17T06:55:52.501Z,5.59
2018-12-17T06:56:52.487Z,5.61
2018-12-17T06:57:52.583Z,5.61
2018-12-17T06:58:52.417Z,5.62
2018-12-17T06:59:52.686Z,5.61
2018-12-17T07:00:52.629Z,5.61
2018-12-17T07:01:52.764Z,5.61
2018-12-17T07:02:52.532Z,5.61
2018-12-17T07:03:52.381Z,5.62
2018-12-17T07:04:52.508Z,5.6
2018-12-17T07:05:52.450Z,5.6
2018-12-17T07:06:52.523Z,5.61
2018-12-17T07:07:52.632Z,5.61
2018-12-17T07:08:52.744Z,5.62
2018-12-17T07:09:52.386Z,5.62
2018-12-17T07:10:52.386Z,5.61
2018-12-17T07:11:52.410Z,5.63
2018-12-17T07:12:52.404Z,5.62
2018-12-17T07:13:52.609Z,5.61
2018-12-17T07:14:52.364Z,5.62
2018-12-17T07:15:52.354Z,5.62
2018-12-17T07:16:52.496Z,5.61
2018-12-17T07:17:52.415Z,5.61
2018-12-17T07:18:52.459Z,5.62
2018-12-17T07:19:52.389Z,5.61
2018-12-17T07:20:52.510Z,5.61
2018-12-17T07:21:52.836Z,5.61
2018-12-17T07:22:52.539Z,5.61
2018-12-17T07:23:52.421Z,5.61
2018-12-17T07:24:53.233Z,5.62
2018-12-17T07:25:52.735Z,5.61
2018-12-17T07:26:52.456Z,5.6
2018-12-17T07:27:52.536Z,5.61
2018-12-17T07:28:52.475Z,5.61
2018-12-17T07:29:52.385Z,5.61
2018-12-17T07:30:52.354Z,5.62
2018-12-17T07:31:52.469Z,5.62
2018-12-17T07:32:52.571Z,5.63
2018-12-17T07:33:52.380Z,5.63
2018-12-17T07:34:52.386Z,5.63
2018-12-17T07:35:53.084Z,5.64
2018-12-17T07:36:52.385Z,5.64
2018-12-17T07:37:52.639Z,5.62
2018-12-17T07:38:52.401Z,5.63
2018-12-17T07:39:52.325Z,5.63
2018-12-17T07:40:52.433Z,5.64
2018-12-17T07:41:52.365Z,5.63
2018-12-17T07:42:52.514Z,5.64
2018-12-17T07:43:52.455Z,5.64
2018-12-17T07:44:53.197Z,5.66
2018-12-17T07:45:52.391Z,5.66
2018-12-17T07:46:52.382Z,5.69
2018-12-17T07:47:52.363Z,5.7
2018-12-17T07:48:52.407Z,5.69
2018-12-17T07:49:52.647Z,5.68
2018-12-17T07:50:52.439Z,5.69
2018-12-17T07:51:52.459Z,5.72
2018-12-17T07:52:52.479Z,5.71
2018-12-17T07:53:52.682Z,5.74
2018-12-17T07:54:52.497Z,5.73
2018-12-17T07:55:52.549Z,5.73
2018-12-17T07:56:52.468Z,5.73
2018-12-17T07:57:53.079Z,5.73
2018-12-17T07:58:52.529Z,5.74
2018-12-17T07:59:57.239Z,5.77
2018-12-17T08:00:52.365Z,5.77
2018-12-17T08:01:52.678Z,5.76
2018-12-17T08:02:52.449Z,5.75
2018-12-17T08:03:52.371Z,5.76
2018-12-17T08:04:52.469Z,5.75
2018-12-17T08:05:52.414Z,5.76
2018-12-17T08:06:52.301Z,5.77
2018-12-17T08:07:52.335Z,5.77
2018-12-17T08:08:52.413Z,5.78
2018-12-17T08:09:52.485Z,5.77
2018-12-17T08:10:52.764Z,5.78
2018-12-17T08:11:52.463Z,5.79
2018-12-17T08:12:52.296Z,5.79
2018-12-17T08:13:52.353Z,5.79
2018-12-17T08:14:52.321Z,5.78
2018-12-17T08:15:52.321Z,5.8
2018-12-17T08:16:52.548Z,5.8
2018-12-17T08:17:52.364Z,5.8
2018-12-17T08:18:52.311Z,5.78
2018-12-17T08:19:52.374Z,5.79
2018-12-17T08:20:52.357Z,5.8
2018-12-17T08:21:52.314Z,5.79
2018-12-17T08:22:52.327Z,5.8
2018-12-17T08:23:52.425Z,5.81
2018-12-17T08:24:52.286Z,5.82
2018-12-17T08:25:52.287Z,5.82
2018-12-17T08:26:52.519Z,5.83
2018-12-17T08:27:52.677Z,5.82
2018-12-17T08:28:52.413Z,5.83
2018-12-17T08:29:52.331Z,5.82
2018-12-17T08:30:52.662Z,5.84
2018-12-17T08:31:52.340Z,5.83
2018-12-17T08:32:52.395Z,5.87
2018-12-17T08:33:52.502Z,5.88
2018-12-17T08:34:52.264Z,5.87
2018-12-17T08:35:52.316Z,5.87
2018-12-17T08:36:52.901Z,5.87
2018-12-17T08:37:52.517Z,5.86
2018-12-17T08:38:52.521Z,5.87
2018-12-17T08:39:52.777Z,5.88
2018-12-17T08:40:53.121Z,5.89
2018-12-17T08:41:52.539Z,5.89
2018-12-17T08:42:52.690Z,5.89
2018-12-17T08:43:52.381Z,5.89
2018-12-17T08:44:52.324Z,5.88
2018-12-17T08:45:52.252Z,5.88
2018-12-17T08:46:52.441Z,5.89
2018-12-17T08:47:52.465Z,5.89
2018-12-17T08:48:52.437Z,5.88
2018-12-17T08:49:52.491Z,5.87
2018-12-17T08:50:52.280Z,5.88
2018-12-17T08:51:52.274Z,5.88
2018-12-17T08:52:52.379Z,5.88
2018-12-17T08:53:53.410Z,5.89
2018-12-17T08:54:52.412Z,5.89
2018-12-17T08:55:52.420Z,5.88
2018-12-17T08:56:52.398Z,5.87
2018-12-17T08:57:52.356Z,5.87
2018-12-17T08:58:52.301Z,5.89
2018-12-17T08:59:52.431Z,5.89
2018-12-17T09:00:52.315Z,5.88
2018-12-17T09:01:52.254Z,5.88
2018-12-17T09:02:52.364Z,5.88
2018-12-17T09:03:52.386Z,5.88
2018-12-17T09:04:52.419Z,5.88
2018-12-17T09:05:52.490Z,5.86
2018-12-17T09:06:52.434Z,5.85
2018-12-17T09:07:52.281Z,5.87
2018-12-17T09:08:52.392Z,5.86
2018-12-17T09:09:52.244Z,5.87
2018-12-17T09:10:52.410Z,5.86
2018-12-17T09:11:52.509Z,5.86
2018-12-17T09:12:52.488Z,5.86
2018-12-17T09:13:52.326Z,5.87
2018-12-17T09:14:52.463Z,5.86
2018-12-17T09:15:52.304Z,5.87
2018-12-17T09:16:52.382Z,5.86
2018-12-17T09:17:52.219Z,5.85
2018-12-17T09:18:52.366Z,5.85
2018-12-17T09:19:53.035Z,5.85
2018-12-17T09:20:52.272Z,5.86
2018-12-17T09:21:52.385Z,5.85
2018-12-17T09:22:52.229Z,5.84
2018-12-17T09:23:52.402Z,5.87
2018-12-17T09:24:52.596Z,5.87
2018-12-17T09:25:52.205Z,5.87
2018-12-17T09:26:52.239Z,5.88
2018-12-17T09:27:52.378Z,5.88
2018-12-17T09:28:52.643Z,5.88
2018-12-17T09:29:52.362Z,5.88
2018-12-17T09:30:52.521Z,5.89
2018-12-17T09:31:52.595Z,5.91
2018-12-17T09:32:52.210Z,5.9
2018-12-17T09:33:52.573Z,5.9
2018-12-17T09:34:52.373Z,5.91
2018-12-17T09:35:54.838Z,5.91
2018-12-17T09:36:52.405Z,5.9
2018-12-17T09:37:52.540Z,5.9
2018-12-17T09:38:52.306Z,5.91
2018-12-17T09:39:52.863Z,5.91
2018-12-17T09:40:52.495Z,5.91
2018-12-17T09:41:52.253Z,5.9
2018-12-17T09:42:52.884Z,5.91
2018-12-17T09:43:52.320Z,5.9
2018-12-17T09:44:52.278Z,5.9
2018-12-17T09:45:52.422Z,5.91
2018-12-17T09:46:52.276Z,5.92
2018-12-17T09:47:52.232Z,5.91
2018-12-17T09:48:52.221Z,5.92
2018-12-17T09:49:52.354Z,5.91
2018-12-17T09:50:52.201Z,5.91
2018-12-17T09:51:52.231Z,5.92
2018-12-17T09:52:52.146Z,5.91
2018-12-17T09:53:52.716Z,5.92
2018-12-17T09:54:52.193Z,5.92
2018-12-17T09:55:52.273Z,5.91
2018-12-17T09:56:52.207Z,5.92
2018-12-17T09:57:52.243Z,5.92
2018-12-17T09:58:52.600Z,5.92
2018-12-17T09:59:52.315Z,5.91
2018-12-17T10:00:52.727Z,5.91
2018-12-17T10:01:52.342Z,5.91
2018-12-17T10:02:52.185Z,5.91
2018-12-17T10:03:52.192Z,5.91
2018-12-17T10:04:52.218Z,5.92
2018-12-17T10:05:52.296Z,5.93
2018-12-17T10:06:52.172Z,5.94
2018-12-17T10:07:52.292Z,5.93
2018-12-17T10:08:52.291Z,5.93
2018-12-17T10:09:52.258Z,5.93
2018-12-17T10:10:52.265Z,5.95
2018-12-17T10:11:52.804Z,5.95
2018-12-17T10:12:52.298Z,5.94
2018-12-17T10:13:52.321Z,5.94
2018-12-17T10:14:52.245Z,5.93
2018-12-17T10:15:52.132Z,5.93
2018-12-17T10:16:52.799Z,5.93
2018-12-17T10:17:52.216Z,5.94
2018-12-17T10:18:52.751Z,5.94
2018-12-17T10:19:52.222Z,5.92
2018-12-17T10:20:52.986Z,5.92
2018-12-17T10:21:52.364Z,5.96
2018-12-17T10:22:52.164Z,5.96
2018-12-17T10:23:52.259Z,5.95
2018-12-17T10:24:52.248Z,5.95
2018-12-17T10:25:52.372Z,5.94
2018-12-17T10:26:52.399Z,5.96
2018-12-17T10:27:52.366Z,5.96
2018-12-17T10:28:52.224Z,5.97
2018-12-17T10:29:52.348Z,5.96
2018-12-17T10:30:52.338Z,5.95
2018-12-17T10:31:52.328Z,5.95
2018-12-17T10:32:52.440Z,5.95
2018-12-17T10:33:52.128Z,5.95
2018-12-17T10:34:52.288Z,5.96
2018-12-17T10:35:52.319Z,5.95
2018-12-17T10:36:52.120Z,5.95
2018-12-17T10:37:52.198Z,5.94
2018-12-17T10:38:52.480Z,5.93
2018-12-17T10:39:52.298Z,5.96
2018-12-17T10:40:52.409Z,5.95
2018-12-17T10:41:52.382Z,5.95
2018-12-17T10:42:52.408Z,5.96
2018-12-17T10:43:52.260Z,5.94
2018-12-17T10:44:52.317Z,5.94
2018-12-17T10:45:52.290Z,5.95
2018-12-17T10:46:52.349Z,5.94
2018-12-17T10:47:52.421Z,5.94
2018-12-17T10:48:52.306Z,5.92
2018-12-17T10:49:52.129Z,5.94
2018-12-17T10:50:52.427Z,5.93
2018-12-17T10:51:52.278Z,5.93
2018-12-17T10:52:52.637Z,5.94
2018-12-17T10:53:52.190Z,5.94
2018-12-17T10:54:52.351Z,5.95
2018-12-17T10:55:52.172Z,5.95
2018-12-17T10:56:52.169Z,5.96
2018-12-17T10:57:52.454Z,5.95
2018-12-17T10:58:52.295Z,5.94
2018-12-17T10:59:52.166Z,5.94
2018-12-17T11:00:52.379Z,5.95
2018-12-17T11:01:52.201Z,5.94
2018-12-17T11:02:52.300Z,5.94
2018-12-17T11:03:52.375Z,5.94
2018-12-17T11:04:52.092Z,5.95
2018-12-17T11:05:52.334Z,5.95
2018-12-17T11:06:52.269Z,5.95
2018-12-17T11:07:52.437Z,5.96
2018-12-17T11:08:52.254Z,5.96
2018-12-17T11:09:52.490Z,5.97
2018-12-17T11:10:52.135Z,5.96
2018-12-17T11:11:52.158Z,5.94
2018-12-17T11:12:52.491Z,5.96
2018-12-17T11:13:52.614Z,5.96
2018-12-17T11:14:52.947Z,5.95
2018-12-17T11:15:52.512Z,5.95
2018-12-17T11:16:52.127Z,5.97
2018-12-17T11:17:52.237Z,5.98
2018-12-17T11:18:52.068Z,5.98
2018-12-17T11:19:52.143Z,5.98
2018-12-17T11:20:52.401Z,5.99
2018-12-17T11:21:52.362Z,5.98
2018-12-17T11:22:52.217Z,5.98
2018-12-17T11:23:52.177Z,5.98
2018-12-17T11:24:52.466Z,6
2018-12-17T11:25:52.684Z,5.99
2018-12-17T11:26:52.196Z,6.01
2018-12-17T11:27:52.404Z,6.01
2018-12-17T11:28:52.070Z,6
2018-12-17T11:29:52.364Z,5.99
2018-12-17T11:30:52.307Z,5.99
2018-12-17T11:31:52.358Z,5.99
2018-12-17T11:32:52.239Z,5.99
2018-12-17T11:33:52.224Z,6.01
2018-12-17T11:34:52.285Z,5.99
2018-12-17T11:35:52.873Z,6.01
2018-12-17T11:36:52.416Z,6.01
2018-12-17T11:37:52.223Z,6
2018-12-17T11:38:52.091Z,6
2018-12-17T11:39:52.676Z,6
2018-12-17T11:40:52.143Z,5.99
2018-12-17T11:41:52.676Z,5.99
2018-12-17T11:42:52.187Z,6.02
2018-12-17T11:43:52.350Z,6.03
2018-12-17T11:44:52.048Z,6.04
2018-12-17T11:45:52.128Z,6.04
2018-12-17T11:46:52.330Z,6.05
2018-12-17T11:47:52.289Z,6.05
2018-12-17T11:48:51.998Z,6.04
2018-12-17T11:49:52.127Z,6.05
2018-12-17T11:50:52.201Z,6.04
2018-12-17T11:51:52.185Z,6.04
2018-12-17T11:52:52.215Z,6.08
2018-12-17T11:53:52.336Z,6.08
2018-12-17T11:54:52.035Z,6.07
2018-12-17T11:55:52.904Z,6.06
2018-12-17T11:56:52.317Z,6.07
2018-12-17T11:57:52.108Z,6.08
2018-12-17T11:58:52.430Z,6.07
2018-12-17T11:59:51.991Z,6.07
2018-12-17T12:00:54.439Z,6.08
2018-12-17T12:01:52.116Z,6.1
2018-12-17T12:02:59.613Z,6.09
2018-12-17T12:03:52.119Z,6.09
2018-12-17T12:04:52.302Z,6.11
2018-12-17T12:05:52.216Z,6.11
2018-12-17T12:06:52.094Z,6.09
2018-12-17T12:07:52.373Z,6.08
2018-12-17T12:08:52.035Z,6.08
2018-12-17T12:09:52.114Z,6.12
2018-12-17T12:10:52.140Z,6.1
2018-12-17T12:11:52.163Z,6.1
2018-12-17T12:12:52.071Z,6.09
2018-12-17T12:13:52.059Z,6.09
2018-12-17T12:14:52.136Z,6.09
2018-12-17T12:15:52.246Z,6.09
2018-12-17T12:16:52.395Z,6.12
2018-12-17T12:17:52.260Z,6.13
2018-12-17T12:18:52.149Z,6.14
2018-12-17T12:19:52.321Z,6.15
2018-12-17T12:20:52.343Z,6.16
2018-12-17T12:21:52.423Z,6.18
2018-12-17T12:22:52.685Z,6.19
2018-12-17T12:23:52.385Z,6.19
2018-12-17T12:24:52.134Z,6.18
2018-12-17T12:25:52.006Z,6.16
2018-12-17T12:26:52.217Z,6.14
2018-12-17T12:27:51.973Z,6.18
2018-12-17T12:28:51.994Z,6.18
2018-12-17T12:29:51.984Z,6.18
2018-12-17T12:30:52.450Z,6.16
2018-12-17T12:31:52.048Z,6.18
2018-12-17T12:32:51.983Z,6.16
2018-12-17T12:33:52.080Z,6.17
2018-12-17T12:34:52.066Z,6.17
2018-12-17T12:35:52.285Z,6.2
2018-12-17T12:36:52.172Z,6.21
2018-12-17T12:37:51.916Z,6.22
2018-12-17T12:38:52.045Z,6.23
2018-12-17T12:39:52.233Z,6.23
2018-12-17T12:40:52.091Z,6.22
2018-12-17T12:41:52.100Z,6.2
2018-12-17T12:42:52.340Z,6.2
2018-12-17T12:43:52.330Z,6.23
2018-12-17T12:44:51.977Z,6.23
2018-12-17T12:45:52.086Z,6.23
2018-12-17T12:46:51.997Z,6.23
2018-12-17T12:47:52.083Z,6.22
2018-12-17T12:48:52.185Z,6.24
2018-12-17T12:49:52.580Z,6.21
2018-12-17T12:50:52.006Z,6.2
2018-12-17T12:51:52.987Z,6.21
2018-12-17T12:52:52.361Z,6.18
2018-12-17T12:53:52.185Z,6.2
2018-12-17T12:54:52.179Z,6.22
2018-12-17T12:55:52.502Z,6.26
2018-12-17T12:56:52.594Z,6.29
2018-12-17T12:57:52.053Z,6.29
2018-12-17T12:58:52.238Z,6.26
2018-12-17T12:59:52.081Z,6.23
2018-12-17T13:00:52.255Z,6.23
2018-12-17T13:01:52.313Z,6.24
2018-12-17T13:02:52.192Z,6.24
2018-12-17T13:03:52.153Z,6.24
2018-12-17T13:04:52.120Z,6.26
2018-12-17T13:05:52.005Z,6.27
2018-12-17T13:06:52.494Z,6.27
2018-12-17T13:07:52.098Z,6.29
2018-12-17T13:08:52.170Z,6.3
2018-12-17T13:09:52.166Z,6.34
2018-12-17T13:10:51.907Z,6.34
2018-12-17T13:11:52.031Z,6.34
2018-12-17T13:12:52.550Z,6.32
2018-12-17T13:13:51.963Z,6.33
2018-12-17T13:14:51.918Z,6.33
2018-12-17T13:15:52.351Z,6.32
2018-12-17T13:16:52.358Z,6.34
2018-12-17T13:17:52.489Z,6.33
2018-12-17T13:18:52.068Z,6.31
2018-12-17T13:19:51.898Z,6.29
2018-12-17T13:20:52.741Z,6.28
2018-12-17T13:21:52.037Z,6.3